Ashaway, Rhode Island
Current Conditions -  °F | °C
As of 8:53 AM on Friday 24 Oct 2014 (Local Time) from KWST Reporting Station
Light Rain Light Rain  
Wind Chill: 10°   Ceiling: 7500
Heat Index: 10°   Visibility: 9mi
Dew Point:   Wind: 8mph
Humidity: 89%   Direction: 330°NNW
Pressure: 29.73"   Gusts: NA
Location:  41.43°N, 71.79°W
Report Text: KWST 241253Z AUTO 33007KT 9SM -RA FEW011 BKN075 OVC095 10/08 A2973 RMK AO2 SLP066 P0001 T01000083
Loading
Personal Weather Stations






























Interactive Weather Map
Tropical Storm Tracking
New forecast layout! Learn more

10-Day Weather Forecast

Advertisements
Track Severe Weather on mobile